createdAt,value
2022-08-02T00:02:26.325Z,99138.59
2022-08-02T00:04:59.421Z,99129.75
2022-08-02T00:07:38.986Z,99146.54
2022-08-02T00:10:10.626Z,99142.30
2022-08-02T00:12:43.950Z,99141.05
2022-08-02T00:15:17.156Z,99145.19
2022-08-02T00:17:50.238Z,99146.39
2022-08-02T00:20:23.546Z,99133.38
2022-08-02T00:22:56.847Z,99143.19
2022-08-02T00:25:30.048Z,99139.87
2022-08-02T00:28:03.349Z,99147.95
2022-08-02T00:30:36.888Z,99135.81
2022-08-02T00:33:10.117Z,99134.92
2022-08-02T00:35:43.604Z,99141.10
2022-08-02T00:38:17.434Z,99129.97
2022-08-02T00:40:55.313Z,99142.28
2022-08-02T00:43:26.549Z,99131.86
2022-08-02T00:46:03.651Z,99138.84
2022-08-02T00:48:34.793Z,99137.09
2022-08-02T00:51:08.236Z,99133.64
2022-08-02T00:53:42.068Z,99139.07
2022-08-02T00:56:15.281Z,99132.94
2022-08-02T00:58:48.480Z,99134.78
2022-08-02T01:01:23.396Z,99133.84
2022-08-02T01:03:56.846Z,99126.80
2022-08-02T01:06:31.856Z,99125.11
2022-08-02T01:09:06.037Z,99130.44
2022-08-02T01:11:39.875Z,99134.91
2022-08-02T01:14:15.002Z,99135.05
2022-08-02T01:16:51.656Z,99128.20
2022-08-02T01:19:34.706Z,99137.95
2022-08-02T01:22:59.424Z,99128.34
2022-08-02T01:25:18.875Z,99130.17
2022-08-02T01:28:14.760Z,99127.62
2022-08-02T01:30:51.884Z,99135.70
2022-08-02T01:33:27.611Z,99122.56
2022-08-02T01:36:03.212Z,99125.28
2022-08-02T01:38:39.727Z,99128.00
2022-08-02T01:41:16.382Z,99127.20
2022-08-02T01:43:52.447Z,99134.27
2022-08-02T01:46:27.431Z,99130.87
2022-08-02T01:49:08.539Z,99138.82
2022-08-02T01:52:00.320Z,99129.89
2022-08-02T01:54:35.530Z,99136.95
2022-08-02T01:57:11.757Z,99143.84
2022-08-02T01:59:47.304Z,99132.27
2022-08-02T02:02:23.467Z,99133.75
2022-08-02T02:04:57.870Z,99137.25
2022-08-02T02:07:33.492Z,99138.95
2022-08-02T02:10:09.467Z,99137.25
2022-08-02T02:12:44.374Z,99140.83
2022-08-02T02:15:20.154Z,99141.12
2022-08-02T02:18:12.584Z,99142.19
2022-08-02T02:20:34.065Z,99142.27
2022-08-02T02:23:08.069Z,99138.82
2022-08-02T02:25:46.715Z,99141.63
2022-08-02T02:28:22.303Z,99141.83
2022-08-02T02:30:58.474Z,99141.09
2022-08-02T02:33:35.038Z,99142.13
2022-08-02T02:36:09.480Z,99138.61
2022-08-02T02:38:44.140Z,99146.52
2022-08-02T02:41:20.486Z,99142.95
2022-08-02T02:43:55.167Z,99142.09
2022-08-02T02:46:31.024Z,99147.45
2022-08-02T02:49:04.801Z,99143.11
2022-08-02T02:51:39.927Z,99139.69
2022-08-02T02:54:30.875Z,99144.08
2022-08-02T02:56:54.585Z,99145.86
2022-08-02T02:59:28.891Z,99146.52
2022-08-02T03:02:03.433Z,99145.44
2022-08-02T03:04:55.922Z,99138.29
2022-08-02T03:07:12.586Z,99143.48
2022-08-02T03:09:50.683Z,99150.44
2022-08-02T03:12:21.152Z,99153.92
2022-08-02T03:14:55.844Z,99154.66
2022-08-02T03:17:39.888Z,99153.72
2022-08-02T03:20:16.475Z,99148.36
2022-08-02T03:22:50.304Z,99149.13
2022-08-02T03:25:23.470Z,99141.92
2022-08-02T03:27:56.850Z,99142.57
2022-08-02T03:30:30.245Z,99148.61
2022-08-02T03:33:03.482Z,99140.56
2022-08-02T03:35:37.490Z,99142.30
2022-08-02T03:38:11.904Z,99147.41
2022-08-02T03:40:46.506Z,99147.32
2022-08-02T03:43:20.505Z,99150.77
2022-08-02T03:45:54.327Z,99147.85
2022-08-02T03:48:33.713Z,99151.11
2022-08-02T03:51:04.181Z,99144.73
2022-08-02T03:53:37.839Z,99148.98
2022-08-02T03:56:12.319Z,99157.58
2022-08-02T03:58:49.259Z,99150.34
2022-08-02T04:01:21.580Z,99149.33
2022-08-02T04:03:55.177Z,99150.91
2022-08-02T04:06:28.449Z,99158.66
2022-08-02T04:09:03.578Z,99150.62
2022-08-02T04:11:38.132Z,99157.44
2022-08-02T04:14:14.352Z,99158.93
2022-08-02T04:16:49.837Z,99157.66
2022-08-02T04:19:25.972Z,99151.20
2022-08-02T04:22:02.262Z,99157.13
2022-08-02T04:24:38.483Z,99155.27
2022-08-02T04:27:51.219Z,99163.77
2022-08-02T04:29:49.440Z,99152.12
2022-08-02T04:32:23.456Z,99156.26
2022-08-02T04:37:32.845Z,99155.50
2022-08-02T04:40:08.983Z,99152.50
2022-08-02T04:42:42.651Z,99147.84
2022-08-02T04:45:17.089Z,99152.92
2022-08-02T04:48:06.472Z,99152.73
2022-08-02T04:50:35.537Z,99148.00
2022-08-02T04:53:09.063Z,99152.09
2022-08-02T04:55:42.567Z,99137.66
2022-08-02T04:58:39.576Z,99149.74
2022-08-02T05:00:52.290Z,99151.10
2022-08-02T05:03:25.583Z,99147.20
2022-08-02T05:05:58.672Z,99150.88
2022-08-02T05:08:32.143Z,99150.67
2022-08-02T05:11:05.293Z,99147.11
2022-08-02T05:13:57.496Z,99142.84
2022-08-02T05:16:13.346Z,99142.20
2022-08-02T05:18:46.820Z,99146.66
2022-08-02T05:21:20.678Z,99143.02
2022-08-02T05:23:56.429Z,99132.33
2022-08-02T05:26:29.643Z,99131.34
2022-08-02T05:29:03.790Z,99139.80
2022-08-02T05:31:36.779Z,99145.52
2022-08-02T05:34:12.184Z,99135.60
2022-08-02T05:36:45.111Z,99134.91
2022-08-02T05:39:19.746Z,99125.41
2022-08-02T05:41:52.834Z,99136.86
2022-08-02T05:44:25.759Z,99131.04
2022-08-02T05:47:01.024Z,99131.63
2022-08-02T05:49:34.290Z,99123.98
2022-08-02T05:52:11.335Z,99123.14
2022-08-02T05:54:51.106Z,99112.39
2022-08-02T05:57:30.386Z,99114.73
2022-08-02T06:00:10.199Z,99118.86
2022-08-02T06:02:56.582Z,99118.61
2022-08-02T06:05:32.709Z,99111.24
2022-08-02T06:08:09.446Z,99109.84
2022-08-02T06:10:44.759Z,99114.41
2022-08-02T06:13:18.201Z,99109.03
2022-08-02T06:15:54.002Z,99109.76
2022-08-02T06:18:28.849Z,99105.39
2022-08-02T06:22:34.858Z,99108.33
2022-08-02T06:23:42.510Z,99107.90
2022-08-02T06:26:18.263Z,99107.36
2022-08-02T06:28:53.537Z,99113.75
2022-08-02T06:31:26.860Z,99116.30
2022-08-02T06:34:00.280Z,99106.11
2022-08-02T06:36:40.412Z,99116.79
2022-08-02T06:39:17.932Z,99107.50
2022-08-02T06:41:53.566Z,99107.77
2022-08-02T06:44:53.083Z,99107.83
2022-08-02T06:47:13.027Z,99111.81
2022-08-02T06:49:51.963Z,99102.15
2022-08-02T06:52:21.403Z,99096.09
2022-08-02T06:54:54.372Z,99112.66
2022-08-02T06:57:27.576Z,99107.84
2022-08-02T07:00:02.976Z,99099.45
2022-08-02T07:02:37.913Z,99101.97
2022-08-02T07:05:12.163Z,99095.42
2022-08-02T07:07:45.321Z,99100.30
2022-08-02T07:10:18.757Z,99097.28
2022-08-02T07:12:51.933Z,99097.11
2022-08-02T07:15:25.262Z,99092.41
2022-08-02T07:17:58.342Z,99087.45
2022-08-02T07:20:34.641Z,99093.43
2022-08-02T07:23:07.706Z,99086.08
2022-08-02T07:26:03.078Z,99081.00
2022-08-02T07:28:23.713Z,99093.56
2022-08-02T07:30:52.704Z,99090.61
2022-08-02T07:33:37.558Z,99091.55
2022-08-02T07:36:04.817Z,99101.70
2022-08-02T07:38:38.183Z,99094.61
2022-08-02T07:41:11.214Z,99087.36
2022-08-02T07:43:45.812Z,99087.85
2022-08-02T07:46:18.816Z,99082.70
2022-08-02T07:48:53.717Z,99079.77
2022-08-02T07:51:26.909Z,99085.61
2022-08-02T07:54:02.178Z,99073.36
2022-08-02T07:56:35.047Z,99065.66
2022-08-02T07:59:10.002Z,99081.66
2022-08-02T08:01:46.154Z,99082.33
2022-08-02T08:04:18.204Z,99086.78
2022-08-02T08:06:54.204Z,99085.70
2022-08-02T08:09:27.452Z,99077.28
2022-08-02T08:12:00.443Z,99094.39
2022-08-02T08:14:33.704Z,99094.09
2022-08-02T08:17:07.557Z,99098.47
2022-08-02T08:19:51.731Z,99091.59
2022-08-02T08:22:15.825Z,99091.05
2022-08-02T08:24:49.265Z,99070.03
2022-08-02T08:27:23.683Z,99082.67
2022-08-02T08:29:57.266Z,99081.31
2022-08-02T08:32:30.439Z,99080.31
2022-08-02T08:35:07.047Z,99078.38
2022-08-02T08:37:41.141Z,99093.28
2022-08-02T08:40:19.308Z,99086.16
2022-08-02T08:42:52.519Z,99093.64
2022-08-02T08:45:31.604Z,99095.58
2022-08-02T08:48:09.430Z,99085.39
2022-08-02T08:50:45.950Z,99085.39
2022-08-02T08:53:20.516Z,99082.75
2022-08-02T08:55:56.667Z,99078.78
2022-08-02T08:58:29.980Z,99079.63
2022-08-02T09:01:03.851Z,99081.88
2022-08-02T09:03:37.297Z,99090.62
2022-08-02T09:06:11.030Z,99081.38
2022-08-02T09:08:44.502Z,99081.02
2022-08-02T09:11:19.398Z,99087.13
2022-08-02T09:13:55.093Z,99068.08
2022-08-02T09:16:33.796Z,99075.48
2022-08-02T09:19:21.416Z,99072.78
2022-08-02T09:21:56.321Z,99078.70
2022-08-02T09:24:34.305Z,99078.03
2022-08-02T09:27:15.118Z,99080.03
2022-08-02T09:30:12.599Z,99072.09
2022-08-02T09:32:30.005Z,99061.52
2022-08-02T09:35:09.895Z,99058.17
2022-08-02T09:38:03.201Z,99066.41
2022-08-02T09:40:39.851Z,99059.94
2022-08-02T09:43:13.448Z,99061.77
2022-08-02T09:45:49.036Z,99048.23
2022-08-02T09:48:23.748Z,99053.59
2022-08-02T09:50:58.929Z,99056.87
2022-08-02T09:53:35.111Z,99062.05
2022-08-02T09:56:35.053Z,99048.63
2022-08-02T09:58:52.039Z,99056.64
2022-08-02T10:01:37.439Z,99057.88
2022-08-02T10:04:21.697Z,99055.10
2022-08-02T10:06:52.498Z,99060.37
2022-08-02T10:09:25.940Z,99050.31
2022-08-02T10:12:01.249Z,99046.32
2022-08-02T10:14:36.398Z,99043.58
2022-08-02T10:17:10.426Z,99056.66
2022-08-02T10:20:02.675Z,99037.38
2022-08-02T10:22:24.397Z,99053.37
2022-08-02T10:25:00.427Z,99048.30
2022-08-02T10:27:55.471Z,99045.69
2022-08-02T10:30:13.477Z,99054.51
2022-08-02T10:32:51.735Z,99034.00
2022-08-02T10:35:27.096Z,99044.04
2022-08-02T10:38:03.957Z,99047.89
2022-08-02T10:40:51.530Z,99045.43
2022-08-02T10:46:42.296Z,99038.80
2022-08-02T10:52:11.545Z,99036.72
2022-08-02T10:55:00.995Z,99039.17
2022-08-02T10:57:47.074Z,99039.90
2022-08-02T11:00:33.265Z,99031.80
2022-08-02T11:03:39.420Z,99022.12
2022-08-02T11:06:25.198Z,99018.52
2022-08-02T11:08:50.567Z,99019.59
2022-08-02T11:11:54.096Z,99015.59
2022-08-02T11:14:08.970Z,99026.52
2022-08-02T11:17:20.793Z,99004.66
2022-08-02T11:20:21.102Z,99009.67
2022-08-02T11:22:58.481Z,99015.82
2022-08-02T11:26:03.179Z,99020.39
2022-08-02T11:28:16.342Z,99025.87
2022-08-02T11:31:03.074Z,99020.64
2022-08-02T11:33:40.445Z,99018.83
2022-08-02T11:36:16.300Z,99024.53
2022-08-02T11:38:49.690Z,99019.48
2022-08-02T11:41:47.304Z,99020.00
2022-08-02T11:43:58.771Z,99020.45
2022-08-02T11:46:35.731Z,99020.30
2022-08-02T11:49:21.276Z,99003.63
2022-08-02T11:52:04.079Z,99008.97
2022-08-02T11:54:44.122Z,99019.29
2022-08-02T11:58:03.797Z,99021.19
2022-08-02T12:00:20.087Z,99029.54
2022-08-02T12:03:09.934Z,99025.94
2022-08-02T12:06:06.561Z,99023.03
2022-08-02T12:08:54.675Z,99025.22
2022-08-02T12:11:22.825Z,99017.79
2022-08-02T12:13:57.649Z,99021.81
2022-08-02T12:16:55.355Z,99019.05
2022-08-02T12:19:29.712Z,99016.12
2022-08-02T12:22:17.507Z,99020.10
2022-08-02T12:24:55.185Z,99012.60
2022-08-02T12:27:38.565Z,99027.00
2022-08-02T12:30:14.974Z,99015.89
2022-08-02T12:32:49.693Z,99012.89
2022-08-02T12:35:26.402Z,99016.45
2022-08-02T12:38:11.588Z,99034.19
2022-08-02T12:40:45.998Z,99030.11
2022-08-02T12:43:24.800Z,99032.56
2022-08-02T12:45:58.917Z,99034.40
2022-08-02T12:48:40.371Z,99018.72
2022-08-02T12:51:51.130Z,99026.70
2022-08-02T12:54:17.694Z,99023.00
2022-08-02T12:56:51.925Z,99016.45
2022-08-02T13:02:25.740Z,99016.44
2022-08-02T13:05:03.186Z,99014.23
2022-08-02T13:07:36.358Z,99018.00
2022-08-02T13:10:11.740Z,99025.24
2022-08-02T13:12:45.376Z,99024.80
2022-08-02T13:15:49.546Z,99024.59
2022-08-02T13:17:54.656Z,99015.28
2022-08-02T13:20:30.341Z,99021.84
2022-08-02T13:23:05.597Z,99019.98
2022-08-02T13:25:38.828Z,99018.54
2022-08-02T13:28:12.042Z,99019.75
2022-08-02T13:30:46.409Z,99003.81
2022-08-02T13:33:21.482Z,99007.70
2022-08-02T13:35:54.507Z,99012.70
2022-08-02T13:38:28.191Z,98998.38
2022-08-02T13:41:21.268Z,99003.55
2022-08-02T13:43:59.463Z,98991.86
2022-08-02T13:46:29.785Z,99002.53
2022-08-02T13:49:03.171Z,98997.06
2022-08-02T13:51:37.307Z,98999.86
2022-08-02T13:54:10.986Z,99004.73
2022-08-02T13:56:47.055Z,98996.44
2022-08-02T13:59:54.448Z,99002.87
2022-08-02T14:01:57.304Z,98990.38
2022-08-02T14:04:30.912Z,98983.14
2022-08-02T14:07:04.186Z,98992.77
2022-08-02T14:09:40.513Z,99000.83
2022-08-02T14:12:20.688Z,98988.12
2022-08-02T14:14:54.035Z,98977.96
2022-08-02T14:17:27.648Z,98987.00
2022-08-02T14:20:00.754Z,98986.53
2022-08-02T14:22:34.379Z,98981.01
2022-08-02T14:25:09.665Z,98982.20
2022-08-02T14:27:44.694Z,98993.34
2022-08-02T14:30:17.946Z,98982.33
2022-08-02T17:56:04.134Z,99039.54
2022-08-02T17:58:37.457Z,99040.78
2022-08-02T18:01:23.698Z,99044.49
2022-08-02T18:03:49.214Z,99045.70
2022-08-02T18:06:26.207Z,99046.05
2022-08-02T18:08:59.837Z,99046.20
2022-08-02T18:11:52.541Z,99045.52
2022-08-02T18:14:09.306Z,99045.71
2022-08-02T18:22:31.098Z,99037.53
2022-08-02T18:25:09.323Z,99041.59
2022-08-02T18:27:59.550Z,99052.66
2022-08-02T18:30:44.510Z,99037.81
2022-08-02T18:33:57.199Z,99038.94
2022-08-02T18:35:59.949Z,99042.84
2022-08-02T18:38:35.445Z,99045.00
2022-08-02T18:44:03.974Z,99041.08
2022-08-02T18:46:43.225Z,99037.80
2022-08-02T18:49:19.768Z,99038.14
2022-08-02T18:51:54.243Z,99034.86
2022-08-02T18:54:39.063Z,99039.50
2022-08-02T18:58:18.989Z,99031.75
2022-08-02T19:02:49.570Z,99040.70
2022-08-02T19:05:53.259Z,99036.91
2022-08-02T19:10:57.335Z,99045.82
2022-08-02T19:13:36.895Z,99045.44
2022-08-02T19:16:10.365Z,99059.18
2022-08-02T19:18:47.742Z,99060.26
2022-08-02T19:22:18.266Z,99047.09
2022-08-02T19:24:02.097Z,99048.78
2022-08-02T19:26:42.083Z,99044.47
2022-08-02T19:29:16.552Z,99056.17
2022-08-02T19:32:03.839Z,99051.89
2022-08-02T19:34:39.426Z,99052.02
2022-08-02T19:37:17.595Z,99048.73
2022-08-02T19:39:51.234Z,99054.23
2022-08-02T19:42:24.930Z,99057.13
2022-08-02T19:44:58.160Z,99055.56
2022-08-02T19:47:38.535Z,99057.60
2022-08-02T19:50:15.134Z,99052.57
2022-08-02T19:52:52.909Z,99048.42
2022-08-02T19:56:00.035Z,99057.52
2022-08-02T19:58:03.437Z,99051.47
2022-08-02T20:00:40.075Z,99053.50
2022-08-02T20:03:15.879Z,99052.78
2022-08-02T20:05:47.927Z,99058.36
2022-08-02T20:08:31.685Z,99050.50
2022-08-02T20:10:56.338Z,99051.43
2022-08-02T20:13:34.743Z,99058.63
2022-08-02T20:16:06.284Z,99057.83
2022-08-02T20:18:40.428Z,99056.34
2022-08-02T20:21:34.108Z,99054.68
2022-08-02T20:23:49.201Z,99060.17
